»·PEaware :: N122SQ KTOR-KAPA

N122SQ :: KTOR-KAPA

FLIGHT INFORMATION

Flight Status: Arrived
Operator: Privately registered:
United States
More flights under this callsign
Pilot: Gabor H. (24209)
Aircraft: CIRRUS SR-22 TURBO
(S22T)
More flights by this aircraft type
Origin: KTOR Torrington Mun
United States
Destination: KAPA Centennial
United States
More flights between these airports :: More routes between these airports
Route:
File this flight plan on PilotEdge
Remarks:
Altitude:
(Current/Filed)
16,500ft
Speed:
(Current/Filed)
160kts
Departed: 02-Nov-23 07:59 AM
Arrived: 02-Nov-23 08:54 AM
Distance/Time
Traveled:
153nm/0:54
Distance/Time
To Go:
Arrived

Flight Plot

Page will automatically refresh every two minutes.

Flight plan parsing failed; only flown route is shown


Map Options




Map Legend


Flown Route
Filed Route
Departure Airport
Arrival Airport
Navaid (VOR, NDB)
Fix

Horizontal Profiles

Position Reports

Time Latitude Longitude Heading Altitude Ground
Speed
02-Nov-23 07:48 42.063137 -104.159460 28 4194ft 0kts
02-Nov-23 07:49 42.063137 -104.159460 28 4194ft 0kts
02-Nov-23 07:50 42.063137 -104.159460 28 4194ft 0kts
02-Nov-23 07:51 42.063137 -104.159460 28 4194ft 0kts
02-Nov-23 07:52 42.063137 -104.159460 28 4194ft 0kts
02-Nov-23 07:53 42.063137 -104.159460 28 4194ft 0kts
02-Nov-23 07:54 42.063137 -104.159460 28 4194ft 0kts
02-Nov-23 07:55 42.063137 -104.159460 27 4194ft 0kts
02-Nov-23 07:56 42.062533 -104.155219 49 4199ft 17kts
02-Nov-23 07:57 42.060699 -104.147406 116 4194ft 25kts
02-Nov-23 07:58 42.063492 -104.153485 294 4219ft 98kts
02-Nov-23 07:59 42.078245 -104.194198 285 5153ft 128kts
02-Nov-23 08:00 42.053319 -104.204077 121 6214ft 149kts
02-Nov-23 08:02 42.024120 -104.170126 187 7226ft 144kts
02-Nov-23 08:03 41.985210 -104.179830 198 8501ft 143kts
02-Nov-23 08:04 41.946163 -104.192909 199 9718ft 147kts
02-Nov-23 08:05 41.906055 -104.206490 201 10860ft 151kts
02-Nov-23 08:06 41.864737 -104.220469 203 11953ft 155kts
02-Nov-23 08:07 41.822394 -104.234783 203 13007ft 159kts
02-Nov-23 08:08 41.778874 -104.249470 203 14020ft 165kts
02-Nov-23 08:09 41.733910 -104.264631 204 14972ft 169kts
02-Nov-23 08:10 41.687671 -104.280184 204 15904ft 173kts
02-Nov-23 08:11 41.639432 -104.296425 204 16519ft 192kts
02-Nov-23 08:12 41.585906 -104.314363 204 16507ft 199kts
02-Nov-23 08:13 41.532703 -104.332209 204 16524ft 196kts
02-Nov-23 08:14 41.479882 -104.349871 204 16543ft 196kts
02-Nov-23 08:15 41.426867 -104.367560 204 16559ft 197kts
02-Nov-23 08:16 41.373433 -104.385359 204 16561ft 198kts
02-Nov-23 08:17 41.320128 -104.403083 204 16562ft 198kts
02-Nov-23 08:18 41.266685 -104.420823 204 16563ft 198kts
02-Nov-23 08:19 41.213180 -104.438554 204 16563ft 198kts
02-Nov-23 08:20 41.159601 -104.456284 203 16563ft 199kts
02-Nov-23 08:21 41.106079 -104.473958 203 16564ft 199kts
02-Nov-23 08:22 41.052304 -104.491688 203 16564ft 199kts
02-Nov-23 08:23 40.998599 -104.509371 203 16564ft 199kts
02-Nov-23 08:24 40.945011 -104.526977 203 16564ft 199kts
02-Nov-23 08:25 40.890995 -104.544690 203 16498ft 199kts
02-Nov-23 08:26 40.837684 -104.562149 203 16494ft 197kts
02-Nov-23 08:26 40.793362 -104.576645 203 16495ft 197kts
02-Nov-23 08:28 40.728898 -104.597790 202 15736ft 218kts
02-Nov-23 08:29 40.669572 -104.617105 201 14555ft 219kts
02-Nov-23 08:30 40.611261 -104.636068 201 13394ft 214kts
02-Nov-23 08:31 40.554347 -104.654552 199 12271ft 209kts
02-Nov-23 08:31 40.507732 -104.669692 199 11355ft 205kts
02-Nov-23 08:32 40.453253 -104.687345 197 10280ft 200kts
02-Nov-23 08:33 40.399685 -104.704651 196 9222ft 196kts
02-Nov-23 08:35 40.338875 -104.724222 196 8011ft 192kts
02-Nov-23 08:36 40.287700 -104.740887 196 6961ft 189kts
02-Nov-23 08:36 40.246386 -104.754462 196 6506ft 173kts
02-Nov-23 08:37 40.202607 -104.768815 196 6515ft 165kts
02-Nov-23 08:38 40.158381 -104.783346 196 6485ft 164kts
02-Nov-23 08:39 40.114073 -104.797822 196 6490ft 164kts
02-Nov-23 08:40 40.069305 -104.812524 196 6489ft 167kts
02-Nov-23 08:41 40.024228 -104.827185 195 6489ft 167kts
02-Nov-23 08:42 39.978928 -104.841938 195 6485ft 169kts
02-Nov-23 08:43 39.933182 -104.856860 194 6479ft 169kts
02-Nov-23 08:44 39.887920 -104.871564 194 6481ft 166kts
02-Nov-23 08:45 39.841687 -104.886572 194 6501ft 164kts
02-Nov-23 08:46 39.800745 -104.888025 168 6499ft 164kts
02-Nov-23 08:47 39.759944 -104.874644 168 6500ft 164kts
02-Nov-23 08:48 39.719101 -104.863115 171 6499ft 164kts
02-Nov-23 08:49 39.678433 -104.855377 179 6499ft 162kts
02-Nov-23 08:50 39.639905 -104.853553 179 6474ft 128kts
02-Nov-23 08:51 39.610759 -104.852571 183 6325ft 104kts
02-Nov-23 08:52 39.583740 -104.851444 182 5916ft 88kts
02-Nov-23 08:53 39.570833 -104.850784 167 5887ft 26kts
02-Nov-23 08:54 39.568539 -104.848040 185 5887ft 0kts

Navigation Log

Ident Type
Flight plan parsing failed, navigation log unavailable